Time;durP1;ratioP1;P1;durP2;ratioP2;P2;SDS_P1;SDS_P2;PMS_P1;PMS_P2;Temp;Humidity;BMP_temperature;BMP_pressure;BME280_temperature;BME280_humidity;BME280_pressure;Samples;Min_cycle;Max_cycle;Signal;HPM_P1;HPM_P2
2021/08/10 00:01:02;;;;;;;7.28;3.70;;;17.00;97.80;;;;;;5032219;28;20490;-85
2021/08/10 00:03:27;;;;;;;5.55;3.60;;;17.00;97.60;;;;;;5026447;28;20060;-84
2021/08/10 00:05:56;;;;;;;6.15;3.92;;;17.00;97.60;;;;;;5021364;28;20022;-85
2021/08/10 00:08:23;;;;;;;6.22;3.45;;;17.00;97.60;;;;;;5026873;28;20034;-85
2021/08/10 00:10:50;;;;;;;6.00;3.13;;;17.00;97.70;;;;;;5015665;28;20083;-84
2021/08/10 00:13:19;;;;;;;8.75;3.35;;;17.00;97.70;;;;;;5032253;28;20025;-85
2021/08/10 00:15:45;;;;;;;4.72;3.30;;;17.00;97.70;;;;;;5032238;28;20092;-85
2021/08/10 00:18:11;;;;;;;6.65;3.53;;;17.00;97.70;;;;;;5047663;28;20017;-83
2021/08/10 00:20:37;;;;;;;4.97;3.08;;;17.00;97.70;;;;;;5032898;28;20538;-83
2021/08/10 00:23:04;;;;;;;4.13;2.97;;;17.00;97.60;;;;;;5047067;28;20021;-84
2021/08/10 00:25:30;;;;;;;5.45;3.33;;;17.00;97.70;;;;;;5042483;28;20025;-84
2021/08/10 00:27:56;;;;;;;6.53;3.65;;;17.00;97.60;;;;;;5036286;28;20029;-84
2021/08/10 00:30:22;;;;;;;6.65;3.45;;;16.90;97.60;;;;;;5040761;28;20078;-84
2021/08/10 00:32:49;;;;;;;6.07;3.60;;;16.90;97.60;;;;;;5041248;28;20128;-83
2021/08/10 00:35:15;;;;;;;6.43;3.50;;;16.90;97.70;;;;;;5051257;28;20021;-84
2021/08/10 00:37:41;;;;;;;5.35;3.47;;;16.90;97.60;;;;;;5037156;28;20024;-84
2021/08/10 00:40:07;;;;;;;4.60;3.20;;;16.90;97.60;;;;;;5041584;28;20026;-84
2021/08/10 00:42:33;;;;;;;6.25;3.42;;;16.90;97.70;;;;;;5026197;28;20179;-84
2021/08/10 00:44:58;;;;;;;6.15;3.35;;;16.90;97.60;;;;;;5040943;28;20064;-84
2021/08/10 00:47:24;;;;;;;5.32;3.30;;;16.80;97.60;;;;;;5024458;28;20382;-83
2021/08/10 00:49:50;;;;;;;5.95;3.00;;;16.90;97.70;;;;;;5029671;28;20037;-84
2021/08/10 00:52:16;;;;;;;7.05;3.50;;;16.80;97.70;;;;;;5035584;28;20044;-83
2021/08/10 00:54:57;;;;;;;8.25;3.65;;;16.80;97.70;;;;;;5046502;28;20025;-84
2021/08/10 00:57:22;;;;;;;;;;;16.80;97.80;;;;;;5048267;28;20021;-84
2021/08/10 00:59:48;;;;;;;5.88;3.58;;;16.80;97.80;;;;;;5033493;28;19917;-84
2021/08/10 01:02:14;;;;;;;5.38;3.60;;;16.70;97.90;;;;;;5020306;28;20382;-84
2021/08/10 01:04:39;;;;;;;5.20;3.42;;;16.70;97.90;;;;;;5046589;28;20023;-84
2021/08/10 01:07:23;;;;;;;6.60;3.85;;;16.70;98.00;;;;;;5042576;28;20025;-83
2021/08/10 01:10:01;;;;;;;8.18;3.80;;;16.70;98.00;;;;;;5046997;28;20028;-84
2021/08/10 01:12:32;;;;;;;6.38;3.80;;;16.70;98.00;;;;;;5054174;28;20108;-84
2021/08/10 01:15:09;;;;;;;6.18;3.70;;;16.70;98.10;;;;;;5037991;28;20022;-83
2021/08/10 01:17:52;;;;;;;8.52;4.05;;;16.70;98.00;;;;;;5055071;28;20060;-84
2021/08/10 01:20:41;;;;;;;7.53;4.53;;;16.70;98.10;;;;;;5038218;28;20029;-84
2021/08/10 01:23:11;;;;;;;6.50;4.13;;;16.70;98.20;;;;;;5029375;28;20021;-85
2021/08/10 01:26:04;;;;;;;7.88;4.20;;;16.70;98.20;;;;;;5040595;28;20026;-84
2021/08/10 01:29:20;;;;;;;7.88;4.30;;;16.60;98.20;;;;;;5033738;28;20056;-85
2021/08/10 01:31:46;;;;;;;6.25;3.75;;;16.60;98.20;;;;;;4963590;28;20035;-85
2021/08/10 01:34:35;;;;;;;8.48;4.70;;;16.60;98.30;;;;;;5011872;28;20103;-85
2021/08/10 01:37:08;;;;;;;7.65;4.57;;;16.60;98.30;;;;;;5043969;28;20068;-83
2021/08/10 01:39:37;;;;;;;6.82;4.18;;;16.60;98.40;;;;;;5052933;28;20025;-83
2021/08/10 01:42:03;;;;;;;8.35;4.28;;;16.60;98.30;;;;;;5042641;28;20036;-83
2021/08/10 01:44:30;;;;;;;7.40;3.88;;;16.60;98.40;;;;;;5053920;28;20032;-83
2021/08/10 01:46:58;;;;;;;6.60;3.67;;;16.60;98.40;;;;;;5017895;28;20021;-83
2021/08/10 01:49:26;;;;;;;7.40;4.10;;;16.60;98.40;;;;;;5048058;28;20094;-83
2021/08/10 01:51:53;;;;;;;5.65;4.20;;;16.60;98.30;;;;;;5039702;28;20016;-83
2021/08/10 01:54:21;;;;;;;6.47;3.83;;;16.60;98.30;;;;;;5026359;28;20029;-83
2021/08/10 01:56:47;;;;;;;6.50;3.40;;;16.60;98.30;;;;;;5047858;28;20033;-83
2021/08/10 01:59:15;;;;;;;6.72;3.90;;;16.60;98.30;;;;;;5026486;28;20043;-82
2021/08/10 02:01:42;;;;;;;5.28;3.47;;;16.60;98.20;;;;;;5053734;28;20025;-83
2021/08/10 02:04:09;;;;;;;7.55;4.10;;;16.60;98.30;;;;;;5044780;28;20075;-83
2021/08/10 02:06:36;;;;;;;6.32;3.78;;;16.60;98.30;;;;;;5019746;28;20026;-83
2021/08/10 02:09:02;;;;;;;7.07;4.18;;;16.60;98.50;;;;;;5034658;28;20021;-83
2021/08/10 02:11:29;;;;;;;5.63;3.45;;;16.60;98.20;;;;;;5043509;28;20432;-83
2021/08/10 02:14:08;;;;;;;6.22;3.72;;;16.60;98.10;;;;;;5059141;28;20074;-83
2021/08/10 02:16:37;;;;;;;5.57;3.55;;;16.60;98.10;;;;;;5036905;28;20487;-83
2021/08/10 02:19:02;;;;;;;6.90;3.67;;;16.60;98.20;;;;;;5034874;28;20044;-83
2021/08/10 02:21:47;;;;;;;7.05;3.55;;;16.60;98.20;;;;;;5047817;28;20026;-83
2021/08/10 02:24:35;;;;;;;4.53;3.05;;;16.60;98.20;;;;;;5033844;28;20034;-83
2021/08/10 02:27:07;;;;;;;8.73;3.72;;;16.60;98.20;;;;;;5047710;28;20010;-85
2021/08/10 02:29:39;;;;;;;6.03;3.90;;;16.60;98.20;;;;;;5033321;28;20547;-85
2021/08/10 02:32:08;;;;;;;5.05;3.22;;;16.60;98.10;;;;;;5037214;28;20481;-85
2021/08/10 02:34:36;;;;;;;6.40;3.58;;;16.60;98.20;;;;;;5037111;28;20485;-83
2021/08/10 02:37:04;;;;;;;8.57;4.13;;;16.60;98.20;;;;;;5053701;28;20060;-83
2021/08/10 02:39:34;;;;;;;6.53;3.92;;;16.60;98.20;;;;;;5028576;28;20025;-83
2021/08/10 02:42:01;;;;;;;7.38;3.72;;;16.60;98.30;;;;;;5033411;28;20022;-85
2021/08/10 02:44:28;;;;;;;6.32;3.47;;;16.60;98.30;;;;;;5030251;28;20021;-85
2021/08/10 02:46:54;;;;;;;6.63;3.80;;;16.50;98.30;;;;;;5040573;28;20021;-85
2021/08/10 02:49:19;;;;;;;8.45;4.13;;;16.60;98.30;;;;;;5034056;28;20039;-85
2021/08/10 02:51:46;;;;;;;8.10;3.85;;;16.60;98.20;;;;;;5034574;28;20026;-85
2021/08/10 02:54:12;;;;;;;5.93;3.72;;;16.50;98.20;;;;;;5016552;28;20033;-85
2021/08/10 02:56:45;;;;;;;6.55;3.83;;;16.50;98.10;;;;;;5013357;28;20455;-85
2021/08/10 02:59:23;;;;;;;10.32;4.38;;;16.50;98.10;;;;;;5033319;28;20100;-85
2021/08/10 03:02:19;;;;;;;5.90;3.53;;;16.50;98.10;;;;;;5042952;28;20032;-85
2021/08/10 03:04:50;;;;;;;7.82;3.15;;;16.50;98.20;;;;;;5029258;28;20394;-85
2021/08/10 03:07:16;;;;;;;7.13;3.88;;;16.50;98.10;;;;;;5040156;28;20104;-85
2021/08/10 03:09:43;;;;;;;8.82;3.60;;;16.50;98.10;;;;;;5035617;28;20033;-85
2021/08/10 03:12:11;;;;;;;5.95;3.55;;;16.50;98.10;;;;;;5035366;28;20025;-85
2021/08/10 03:14:37;;;;;;;6.07;3.60;;;16.40;98.10;;;;;;5036342;28;20032;-86
2021/08/10 03:17:07;;;;;;;5.22;3.50;;;16.50;98.20;;;;;;5041269;28;20039;-86
2021/08/10 03:19:38;;;;;;;7.53;3.92;;;16.50;98.10;;;;;;5052426;28;20061;-84
2021/08/10 03:22:05;;;;;;;7.18;4.07;;;16.40;98.40;;;;;;5044827;28;20485;-85
2021/08/10 03:24:31;;;;;;;7.85;3.83;;;16.40;98.50;;;;;;5046376;28;20032;-85
2021/08/10 03:27:01;;;;;;;6.53;4.20;;;16.40;98.40;;;;;;5038751;28;20025;-85
2021/08/10 03:29:27;;;;;;;6.32;3.50;;;16.40;98.40;;;;;;5049960;28;20055;-85
2021/08/10 03:31:54;;;;;;;7.18;3.90;;;16.40;98.50;;;;;;5052893;28;20461;-84
2021/08/10 03:34:21;;;;;;;7.80;4.03;;;16.40;98.40;;;;;;5043015;28;20116;-84
2021/08/10 03:36:48;;;;;;;6.68;4.15;;;16.40;98.30;;;;;;5040851;28;20057;-84
2021/08/10 03:39:15;;;;;;;9.45;4.10;;;16.40;98.30;;;;;;5037719;28;20025;-84
2021/08/10 03:41:43;;;;;;;5.82;3.55;;;16.40;98.30;;;;;;5038254;28;20029;-84
2021/08/10 03:44:09;;;;;;;8.25;4.25;;;16.30;98.30;;;;;;5053942;28;20053;-84
2021/08/10 03:46:36;;;;;;;7.53;3.60;;;16.30;98.20;;;;;;5027401;28;20112;-84
2021/08/10 03:49:02;;;;;;;7.03;3.60;;;16.30;98.20;;;;;;5057177;28;20033;-84
2021/08/10 03:51:29;;;;;;;6.32;4.05;;;16.30;98.20;;;;;;5026051;28;20032;-84
2021/08/10 03:53:55;;;;;;;8.98;3.70;;;16.30;98.20;;;;;;5048539;28;20474;-85
2021/08/10 03:56:24;;;;;;;7.25;4.05;;;16.30;98.20;;;;;;5035803;28;20035;-84
2021/08/10 03:58:52;;;;;;;6.78;3.30;;;16.30;98.30;;;;;;5035809;28;20099;-84
2021/08/10 04:01:19;;;;;;;9.93;4.35;;;16.30;98.30;;;;;;5037864;28;20025;-84
2021/08/10 04:03:47;;;;;;;8.88;4.05;;;16.30;98.30;;;;;;5048296;28;20021;-84
2021/08/10 04:06:14;;;;;;;6.60;3.90;;;16.20;98.30;;;;;;5035327;28;20505;-84
2021/08/10 04:08:40;;;;;;;8.40;3.90;;;16.30;98.30;;;;;;5020396;28;20167;-84
2021/08/10 04:11:06;;;;;;;6.57;3.47;;;16.20;98.20;;;;;;5049456;28;20079;-84
2021/08/10 04:13:32;;;;;;;7.22;3.78;;;16.20;98.20;;;;;;5024113;28;20044;-84
2021/08/10 04:16:02;;;;;;;7.28;4.05;;;16.20;98.50;;;;;;5044196;28;20425;-84
2021/08/10 04:18:29;;;;;;;7.15;4.15;;;16.20;98.30;;;;;;5023874;28;20033;-85
2021/08/10 04:20:55;;;;;;;7.70;4.20;;;16.20;98.30;;;;;;5041284;28;20045;-85
2021/08/10 04:23:24;;;;;;;6.63;3.83;;;16.20;98.30;;;;;;5029548;28;20033;-85
2021/08/10 04:25:50;;;;;;;7.85;3.92;;;16.20;98.30;;;;;;5015980;28;20022;-85
2021/08/10 04:28:15;;;;;;;7.93;3.83;;;16.10;98.20;;;;;;5033098;28;20052;-85
2021/08/10 04:30:42;;;;;;;7.72;3.92;;;16.10;98.30;;;;;;5038823;28;20028;-85
2021/08/10 04:33:08;;;;;;;6.18;3.50;;;16.10;98.30;;;;;;5021242;28;20026;-86
2021/08/10 04:35:35;;;;;;;6.78;3.45;;;16.10;98.30;;;;;;5033901;23;21236;-88
2021/08/10 04:38:02;;;;;;;8.13;4.07;;;16.10;98.40;;;;;;5011570;28;20390;-88
2021/08/10 04:40:29;;;;;;;6.50;3.35;;;16.10;98.40;;;;;;5011097;28;20037;-87
2021/08/10 04:42:55;;;;;;;6.80;3.85;;;16.10;98.40;;;;;;5011765;28;20030;-88
2021/08/10 04:45:21;;;;;;;8.02;3.70;;;16.10;98.40;;;;;;5012641;28;20026;-89
2021/08/10 04:47:47;;;;;;;6.45;3.47;;;16.10;98.40;;;;;;4996413;28;20042;-89
2021/08/10 04:50:13;;;;;;;8.13;3.47;;;16.10;98.40;;;;;;5028967;28;20026;-89
2021/08/10 04:52:38;;;;;;;7.55;3.88;;;16.10;98.40;;;;;;5012664;28;20024;-89
2021/08/10 04:55:08;;;;;;;5.00;3.20;;;16.10;98.40;;;;;;5012003;28;20056;-89
2021/08/10 04:57:33;;;;;;;6.47;3.60;;;16.10;98.40;;;;;;5011660;28;20088;-88
2021/08/10 05:00:00;;;;;;;10.73;3.83;;;16.10;98.40;;;;;;4992099;28;20039;-89
2021/08/10 05:02:26;;;;;;;7.72;3.42;;;16.10;98.40;;;;;;5012114;28;20030;-88
2021/08/10 05:04:52;;;;;;;6.47;3.70;;;16.10;98.30;;;;;;5011874;28;20430;-88
2021/08/10 05:07:18;;;;;;;8.80;3.65;;;16.10;98.40;;;;;;4995796;28;20117;-88
2021/08/10 05:09:44;;;;;;;7.63;3.30;;;16.10;98.40;;;;;;4995654;28;20089;-89
2021/08/10 05:12:09;;;;;;;6.35;3.60;;;16.00;98.40;;;;;;5012253;28;20057;-88
2021/08/10 05:14:36;;;;;;;5.75;3.33;;;16.10;98.50;;;;;;5013905;28;20029;-89
2021/08/10 05:17:02;;;;;;;7.05;3.40;;;16.10;98.50;;;;;;5011429;28;20441;-89
2021/08/10 05:19:28;;;;;;;7.43;3.42;;;16.10;98.50;;;;;;5011478;28;20026;-89
2021/08/10 05:21:53;;;;;;;9.18;3.58;;;16.10;98.50;;;;;;5012036;28;20041;-89
2021/08/10 05:24:19;;;;;;;9.52;3.70;;;16.00;98.50;;;;;;5010555;28;20394;-88
2021/08/10 05:26:45;;;;;;;6.13;3.50;;;16.00;98.50;;;;;;4991435;28;20018;-89
2021/08/10 05:29:10;;;;;;;7.60;3.30;;;16.00;98.60;;;;;;5005699;28;20429;-89
2021/08/10 05:31:36;;;;;;;6.45;3.38;;;16.00;98.60;;;;;;5004670;28;20026;-89
2021/08/10 05:34:02;;;;;;;6.32;3.55;;;16.00;98.70;;;;;;5009691;28;20101;-88
2021/08/10 05:36:28;;;;;;;6.07;3.20;;;16.00;98.60;;;;;;5009481;28;20188;-89
2021/08/10 05:38:54;;;;;;;6.38;3.10;;;16.00;98.70;;;;;;4993799;28;20041;-90
2021/08/10 05:41:23;;;;;;;8.40;3.53;;;16.10;98.70;;;;;;4993889;28;20026;-88
2021/08/10 05:43:50;;;;;;;6.35;3.75;;;16.10;98.70;;;;;;4994583;28;20068;-88
2021/08/10 05:46:16;;;;;;;8.95;4.03;;;16.10;98.70;;;;;;5011723;28;20467;-90
2021/08/10 05:48:42;;;;;;;5.80;3.33;;;16.10;98.70;;;;;;5005858;28;20153;-89
2021/08/10 05:51:08;;;;;;;6.57;3.50;;;16.20;98.70;;;;;;5008747;28;20465;-89
2021/08/10 05:53:36;;;;;;;6.22;3.63;;;16.20;98.60;;;;;;5014815;28;20022;-88
2021/08/10 05:56:02;;;;;;;5.55;3.50;;;16.20;98.70;;;;;;5014873;28;20100;-89
2021/08/10 05:58:28;;;;;;;7.55;3.65;;;16.30;98.60;;;;;;5013901;28;20030;-88
2021/08/10 06:00:54;;;;;;;6.13;3.70;;;16.30;98.60;;;;;;4991811;28;20031;-88
2021/08/10 06:03:20;;;;;;;7.07;4.03;;;16.30;98.50;;;;;;4993920;28;20394;-88
2021/08/10 06:05:46;;;;;;;7.15;4.10;;;16.30;98.50;;;;;;5011553;28;20478;-89
2021/08/10 06:08:12;;;;;;;9.45;4.50;;;16.30;98.50;;;;;;5009637;28;20032;-88
2021/08/10 06:10:38;;;;;;;6.65;3.90;;;16.30;98.50;;;;;;5021862;28;20114;-87
2021/08/10 06:13:04;;;;;;;7.40;4.10;;;16.40;98.50;;;;;;5012124;28;20048;-87
2021/08/10 06:15:30;;;;;;;5.20;3.60;;;16.40;98.60;;;;;;5009120;28;20041;-88
2021/08/10 06:17:56;;;;;;;8.20;4.93;;;16.40;98.50;;;;;;4997401;28;20524;-87
2021/08/10 06:20:22;;;;;;;6.55;4.45;;;16.50;98.50;;;;;;5008059;28;20034;-87
2021/08/10 06:22:48;;;;;;;8.50;4.65;;;16.50;98.50;;;;;;5010944;28;20022;-92
2021/08/10 06:25:15;;;;;;;6.90;4.45;;;16.50;98.60;;;;;;5012035;28;20032;-89
2021/08/10 06:27:41;;;;;;;10.50;4.32;;;16.60;98.60;;;;;;5013497;28;20026;-89
2021/08/10 06:30:11;;;;;;;7.22;4.63;;;16.60;98.60;;;;;;5011933;28;20356;-88
2021/08/10 06:32:37;;;;;;;7.70;4.50;;;16.70;98.50;;;;;;5013301;28;20068;-88
2021/08/10 06:35:03;;;;;;;5.97;3.60;;;16.70;98.60;;;;;;5014581;28;20261;-89
2021/08/10 06:37:28;;;;;;;7.18;4.55;;;16.80;98.60;;;;;;5014491;28;20050;-87
2021/08/10 06:39:54;;;;;;;6.75;4.07;;;16.80;98.60;;;;;;5013576;28;20029;-88
2021/08/10 06:42:21;;;;;;;8.52;4.75;;;16.90;98.60;;;;;;4993605;28;20058;-89
2021/08/10 06:44:47;;;;;;;8.30;4.72;;;16.90;98.50;;;;;;4994413;28;20042;-88
2021/08/10 06:47:13;;;;;;;6.95;4.20;;;16.90;98.30;;;;;;4997577;28;20018;-88
2021/08/10 06:49:39;;;;;;;8.63;4.32;;;16.90;98.30;;;;;;5013848;28;20030;-87
2021/08/10 06:52:09;;;;;;;7.88;4.05;;;17.00;98.30;;;;;;5010922;28;20022;-86
2021/08/10 06:54:36;;;;;;;8.20;4.77;;;17.00;97.80;;;;;;5001028;28;20514;-87
2021/08/10 06:57:06;;;;;;;10.80;4.65;;;17.00;97.80;;;;;;5022972;28;20052;-86
2021/08/10 06:59:33;;;;;;;9.00;4.25;;;17.00;97.60;;;;;;5013366;28;20125;-87
2021/08/10 07:01:58;;;;;;;6.80;4.07;;;17.00;97.60;;;;;;5017947;28;20036;-87
2021/08/10 07:04:24;;;;;;;8.00;4.45;;;17.00;97.70;;;;;;5028062;28;20034;-88
2021/08/10 07:06:53;;;;;;;8.25;4.70;;;17.10;97.80;;;;;;5008058;28;20479;-88
2021/08/10 07:09:18;;;;;;;9.07;4.90;;;17.10;97.70;;;;;;5019277;28;20037;-88
2021/08/10 07:11:47;;;;;;;8.23;5.00;;;17.10;97.70;;;;;;5014654;28;20029;-88
2021/08/10 07:14:13;;;;;;;9.50;5.32;;;17.10;97.60;;;;;;5015509;28;20028;-89
2021/08/10 07:16:40;;;;;;;8.73;5.13;;;17.20;97.70;;;;;;4999482;28;20030;-89
2021/08/10 07:19:06;;;;;;;11.40;4.78;;;17.20;97.60;;;;;;4996459;28;20030;-89
2021/08/10 07:21:32;;;;;;;8.60;5.03;;;17.30;97.50;;;;;;5012459;28;20026;-89
2021/08/10 07:23:57;;;;;;;11.23;4.70;;;17.30;97.40;;;;;;5012315;28;20096;-89
2021/08/10 07:26:23;;;;;;;8.45;4.88;;;17.40;97.20;;;;;;5029277;28;20116;-88
2021/08/10 07:28:49;;;;;;;7.15;4.22;;;17.40;97.20;;;;;;4996098;28;20030;-90
2021/08/10 07:31:15;;;;;;;9.05;4.45;;;17.50;97.30;;;;;;5012076;28;20026;-88
2021/08/10 07:33:41;;;;;;;8.48;4.10;;;17.50;97.20;;;;;;5013353;28;20018;-88
2021/08/10 07:36:07;;;;;;;6.60;3.65;;;17.50;97.20;;;;;;5011975;28;20053;-88
2021/08/10 07:38:33;;;;;;;8.60;4.90;;;17.50;97.10;;;;;;5028879;28;20029;-89
2021/08/10 07:40:58;;;;;;;6.80;3.97;;;17.60;97.10;;;;;;5013590;28;20034;-90
2021/08/10 07:43:27;;;;;;;8.73;4.45;;;17.60;97.10;;;;;;5013227;28;20380;-88
2021/08/10 07:45:53;;;;;;;8.10;4.47;;;17.70;97.10;;;;;;5012000;28;20175;-88
2021/08/10 07:48:19;;;;;;;10.05;4.53;;;17.70;96.80;;;;;;5029213;28;20030;-89
2021/08/10 07:50:48;;;;;;;8.93;4.47;;;17.80;96.90;;;;;;5013339;28;20022;-83
2021/08/10 07:53:15;;;;;;;9.35;4.78;;;17.80;96.90;;;;;;5012528;28;20104;-88
2021/08/10 07:55:51;;;;;;;;;;;;;;;;;;;;;
2021/08/10 07:58:18;;;;;;;7.13;4.50;;;17.90;96.70;;;;;;5013144;28;20036;-90
2021/08/10 08:00:44;;;;;;;7.25;4.78;;;17.90;96.60;;;;;;5013880;28;20088;-90
2021/08/10 08:03:18;;;;;;;7.85;4.45;;;17.90;96.60;;;;;;5012769;28;20030;-90
2021/08/10 08:05:47;;;;;;;8.50;4.65;;;18.00;96.70;;;;;;5026910;28;20025;-91
2021/08/10 08:08:15;;;;;;;9.60;5.00;;;18.00;96.70;;;;;;5012947;28;20076;-90
2021/08/10 08:10:44;;;;;;;9.73;4.63;;;18.00;96.50;;;;;;4990865;28;20064;-89
2021/08/10 08:13:10;;;;;;;9.55;4.38;;;18.10;96.20;;;;;;5011904;28;20030;-88
2021/08/10 08:15:35;;;;;;;7.32;4.28;;;18.10;96.00;;;;;;5014015;28;20041;-89
2021/08/10 08:18:02;;;;;;;10.05;4.18;;;18.10;96.10;;;;;;5012725;28;20025;-88
2021/08/10 08:20:30;;;;;;;5.90;3.83;;;18.10;96.30;;;;;;5012184;28;20041;-91
2021/08/10 08:22:58;;;;;;;6.60;3.92;;;18.20;96.30;;;;;;5011962;28;20474;-89
2021/08/10 08:25:24;;;;;;;9.50;4.40;;;18.30;96.30;;;;;;5011619;28;20489;-90
2021/08/10 08:27:50;;;;;;;7.95;3.65;;;18.30;95.90;;;;;;5012497;28;20034;-90
2021/08/10 08:30:18;;;;;;;8.48;4.10;;;18.30;95.90;;;;;;5028529;28;20034;-88
2021/08/10 08:32:44;;;;;;;11.38;4.55;;;18.30;95.80;;;;;;5005754;28;20056;-90
2021/08/10 08:35:10;;;;;;;8.73;4.45;;;18.30;95.60;;;;;;5005647;28;20046;-90
2021/08/10 08:37:36;;;;;;;7.25;3.75;;;18.40;95.50;;;;;;5008049;28;20483;-85
2021/08/10 08:40:06;;;;;;;7.82;3.70;;;18.40;95.30;;;;;;5009177;28;20022;-87
2021/08/10 08:42:33;;;;;;;6.40;3.42;;;18.40;95.20;;;;;;5011435;28;20116;-85
2021/08/10 08:44:59;;;;;;;4.78;2.95;;;18.50;95.30;;;;;;5008248;28;20026;-83
2021/08/10 08:47:25;;;;;;;7.10;3.38;;;18.50;94.90;;;;;;5010777;28;20022;-85
2021/08/10 08:49:55;;;;;;;7.00;3.13;;;18.60;94.90;;;;;;5012057;28;20037;-88
2021/08/10 08:52:23;;;;;;;6.88;3.50;;;18.60;94.80;;;;;;5011271;28;20018;-91
2021/08/10 08:54:49;;;;;;;6.85;3.05;;;18.70;94.90;;;;;;5006549;28;20037;-85
2021/08/10 08:57:15;;;;;;;6.03;2.95;;;18.70;94.30;;;;;;5011947;28;20046;-84
2021/08/10 08:59:42;;;;;;;5.97;3.00;;;18.70;93.90;;;;;;4986067;28;20065;-85
2021/08/10 09:02:18;;;;;;;5.88;2.95;;;18.80;94.30;;;;;;5004011;28;20021;-85
2021/08/10 09:04:45;;;;;;;6.50;3.10;;;18.80;94.30;;;;;;5003759;28;20046;-86
2021/08/10 09:07:11;;;;;;;6.43;2.80;;;18.90;94.30;;;;;;5009254;28;20069;-85
2021/08/10 09:09:37;;;;;;;6.30;3.03;;;18.90;94.10;;;;;;5010017;28;20502;-85
2021/08/10 09:12:23;;;;;;;4.95;3.15;;;18.90;93.60;;;;;;4994736;28;20033;-87
2021/08/10 09:14:53;;;;;;;9.13;4.10;;;18.90;93.30;;;;;;5000649;28;20510;-86
2021/08/10 09:17:23;;;;;;;6.30;3.42;;;18.80;93.20;;;;;;5017091;28;20378;-86
2021/08/10 09:19:52;;;;;;;7.22;3.63;;;18.80;93.40;;;;;;5012611;28;20177;-87
2021/08/10 09:22:29;;;;;;;6.95;3.95;;;18.90;93.30;;;;;;5030868;28;20121;-91
2021/08/10 09:25:06;;;;;;;7.32;3.70;;;18.90;93.30;;;;;;5039189;28;20010;-89
2021/08/10 09:27:37;;;;;;;6.07;3.42;;;18.90;93.50;;;;;;5054922;28;20010;-83
2021/08/10 09:30:04;;;;;;;;;;;18.90;93.40;;;;;;5028107;28;20026;-84
2021/08/10 09:32:30;;;;;;;6.60;3.33;;;19.00;93.30;;;;;;5020894;28;19909;-85
2021/08/10 09:35:16;;;;;;;5.00;3.10;;;19.00;93.40;;;;;;5031814;28;20366;-84
2021/08/10 09:37:48;;;;;;;5.53;2.97;;;19.00;93.50;;;;;;5015020;28;20041;-85
2021/08/10 09:40:28;;;;;;;5.40;3.42;;;19.10;93.70;;;;;;5013056;28;20095;-85
2021/08/10 09:43:02;;;;;;;5.25;2.97;;;19.10;93.70;;;;;;5018269;28;20026;-85
2021/08/10 09:45:28;;;;;;;4.90;2.80;;;19.20;94.10;;;;;;4995843;28;20146;-84
2021/08/10 09:47:53;;;;;;;8.48;3.78;;;19.30;93.90;;;;;;5013641;28;20120;-85
2021/08/10 09:50:26;;;;;;;5.57;3.15;;;19.30;93.30;;;;;;5013001;28;20515;-86
2021/08/10 09:52:52;;;;;;;6.43;3.60;;;19.40;93.40;;;;;;5013402;28;20025;-84
2021/08/10 09:55:19;;;;;;;6.40;3.03;;;19.40;93.30;;;;;;5013365;28;20030;-87
2021/08/10 09:58:02;;;;;;;4.60;2.90;;;19.50;93.20;;;;;;5012984;28;20033;-88
2021/08/10 10:00:39;;;;;;;4.47;2.72;;;19.50;93.00;;;;;;5001757;28;20049;-87
2021/08/10 10:03:21;;;;;;;5.32;2.67;;;19.60;93.10;;;;;;5013491;28;20351;-88
2021/08/10 10:05:47;;;;;;;3.97;2.40;;;19.70;93.00;;;;;;5029958;28;20049;-87
2021/08/10 10:08:37;;;;;;;5.15;2.50;;;19.70;92.90;;;;;;5014247;28;20084;-87
2021/08/10 10:11:02;;;;;;;5.78;2.45;;;19.80;92.90;;;;;;5011044;28;20067;-88
2021/08/10 10:13:29;;;;;;;4.45;2.30;;;19.80;92.90;;;;;;5013803;28;20081;-90
2021/08/10 10:15:55;;;;;;;5.18;2.30;;;19.80;92.30;;;;;;5013849;28;20811;-88
2021/08/10 10:18:24;;;;;;;3.70;2.10;;;19.80;91.70;;;;;;5013951;28;20030;-87
2021/08/10 10:20:49;;;;;;;3.42;2.15;;;19.70;91.80;;;;;;5029414;28;20034;-87
2021/08/10 10:23:24;;;;;;;5.32;1.88;;;19.70;91.90;;;;;;5012945;28;20033;-87
2021/08/10 10:25:52;;;;;;;5.68;2.58;;;19.80;92.40;;;;;;5029811;28;20465;-88
2021/08/10 10:28:18;;;;;;;4.35;2.53;;;19.90;92.50;;;;;;5013201;28;20115;-88
2021/08/10 10:30:46;;;;;;;3.08;2.00;;;20.00;92.50;;;;;;5029831;28;20049;-88
2021/08/10 10:33:14;;;;;;;5.32;2.50;;;20.10;92.50;;;;;;5013525;28;20423;-88
2021/08/10 10:35:41;;;;;;;4.28;2.47;;;20.10;92.40;;;;;;5013931;28;20489;-88
2021/08/10 10:38:07;;;;;;;5.03;2.40;;;20.20;91.90;;;;;;5012638;28;20045;-86
2021/08/10 10:40:33;;;;;;;4.88;2.35;;;20.20;91.60;;;;;;5011501;28;20049;-88
2021/08/10 10:43:00;;;;;;;3.85;2.20;;;20.10;91.10;;;;;;4995453;28;20789;-87
2021/08/10 10:45:40;;;;;;;6.38;2.40;;;20.10;91.50;;;;;;5011287;28;20466;-89
2021/08/10 10:48:25;;;;;;;5.43;2.40;;;20.10;91.80;;;;;;5008861;28;20084;-87
2021/08/10 10:51:13;;;;;;;8.80;3.13;;;20.30;92.10;;;;;;5012946;28;20061;-82
2021/08/10 10:53:51;;;;;;;6.63;2.97;;;20.40;91.50;;;;;;5010672;28;20030;-83
2021/08/10 10:56:36;;;;;;;7.55;3.33;;;20.50;90.90;;;;;;5018773;28;20022;-91
2021/08/10 10:59:30;;;;;;;5.78;3.20;;;20.70;90.40;;;;;;5027467;28;20534;-93
2021/08/10 11:02:24;;;;;;;6.20;3.05;;;20.70;88.70;;;;;;5010897;28;20463;-92
2021/08/10 11:05:21;;;;;;;5.40;2.80;;;20.80;89.90;;;;;;5009290;28;20040;-86
2021/08/10 11:07:55;;;;;;;5.72;2.83;;;20.90;90.40;;;;;;5021908;28;20344;-88
2021/08/10 11:10:38;;;;;;;4.32;2.40;;;21.00;89.70;;;;;;5013517;28;20130;-86
2021/08/10 11:13:25;;;;;;;5.13;2.80;;;21.00;88.40;;;;;;5011711;28;20022;-89
2021/08/10 11:15:51;;;;;;;5.05;2.58;;;21.00;87.40;;;;;;5012764;28;20025;-88
2021/08/10 11:18:16;;;;;;;5.53;2.63;;;21.00;87.70;;;;;;5029096;28;20022;-88
2021/08/10 11:20:47;;;;;;;6.85;3.53;;;21.10;88.00;;;;;;5014320;28;20030;-88
2021/08/10 11:23:19;;;;;;;5.78;3.00;;;21.10;87.50;;;;;;5013240;28;20022;-87
2021/08/10 11:25:46;;;;;;;5.38;2.40;;;21.20;87.20;;;;;;5012798;28;20382;-89
2021/08/10 11:28:37;;;;;;;5.43;3.10;;;21.20;86.60;;;;;;5013950;28;20777;-87
2021/08/10 11:31:11;;;;;;;6.88;3.17;;;21.30;84.50;;;;;;5005794;28;20045;-87
2021/08/10 11:33:40;;;;;;;7.10;3.10;;;21.30;84.80;;;;;;5013840;28;20540;-88
2021/08/10 11:36:12;;;;;;;5.57;2.63;;;21.30;85.50;;;;;;5013666;28;20028;-87
2021/08/10 11:38:43;;;;;;;7.20;3.08;;;21.40;86.10;;;;;;5012067;28;20026;-88
2021/08/10 11:41:10;;;;;;;7.15;3.08;;;21.40;86.50;;;;;;5012509;28;20052;-87
2021/08/10 11:43:42;;;;;;;7.72;2.80;;;21.40;86.00;;;;;;5011924;28;20344;-88
2021/08/10 11:46:18;;;;;;;5.72;2.83;;;21.40;84.90;;;;;;5013395;28;20029;-86
2021/08/10 11:48:48;;;;;;;6.13;2.97;;;21.40;83.40;;;;;;5028604;28;20037;-88
2021/08/10 11:51:25;;;;;;;5.18;2.83;;;21.40;83.60;;;;;;5011198;28;20498;-87
2021/08/10 11:53:53;;;;;;;7.43;2.83;;;21.50;84.70;;;;;;5027901;28;20030;-87
2021/08/10 11:56:34;;;;;;;6.25;2.97;;;21.50;85.10;;;;;;5028090;28;20026;-87
2021/08/10 11:59:04;;;;;;;5.07;2.88;;;21.70;84.50;;;;;;5012693;28;20694;-87
2021/08/10 12:01:33;;;;;;;5.25;2.78;;;21.80;85.10;;;;;;5012724;28;20109;-88
2021/08/10 12:04:20;;;;;;;6.05;3.00;;;21.90;84.10;;;;;;5028109;28;20042;-87
2021/08/10 12:06:50;;;;;;;3.40;2.30;;;22.00;84.40;;;;;;5011525;28;20033;-88
2021/08/10 12:09:18;;;;;;;6.25;3.03;;;22.00;84.90;;;;;;5027541;28;20360;-88
2021/08/10 12:11:50;;;;;;;3.95;2.40;;;22.10;84.00;;;;;;5012005;28;20100;-87
2021/08/10 12:14:21;;;;;;;5.03;2.70;;;22.20;84.60;;;;;;4996815;28;20037;-88
2021/08/10 12:16:59;;;;;;;;;;;22.30;83.80;;;;;;5027587;28;20049;-87
2021/08/10 12:19:33;;;;;;;7.38;2.80;;;22.40;84.20;;;;;;5006339;28;19960;-91
2021/08/10 12:22:03;;;;;;;6.00;2.58;;;22.50;84.00;;;;;;5026402;28;20497;-87
2021/08/10 12:24:33;;;;;;;6.88;3.30;;;22.60;84.10;;;;;;5012929;28;20478;-88
2021/08/10 12:27:01;;;;;;;;;;;22.60;83.20;;;;;;5012646;28;20451;-87
2021/08/10 12:29:44;;;;;;;6.55;3.53;;;22.60;80.20;;;;;;5012445;28;19916;-88
2021/08/10 12:32:26;;;;;;;7.30;3.50;;;22.60;80.40;;;;;;5010930;28;21118;-88
2021/08/10 12:34:52;;;;;;;6.00;2.92;;;22.50;80.90;;;;;;5025677;28;20025;-89
2021/08/10 12:37:35;;;;;;;8.18;3.15;;;22.60;82.10;;;;;;5011201;28;20050;-88
2021/08/10 12:40:02;;;;;;;6.03;3.45;;;22.60;81.20;;;;;;5028259;28;20038;-87
2021/08/10 12:42:28;;;;;;;7.25;3.33;;;22.70;79.50;;;;;;5028008;28;20398;-88
2021/08/10 12:44:55;;;;;;;5.28;2.80;;;22.70;80.30;;;;;;5012011;28;20157;-88
2021/08/10 12:47:35;;;;;;;5.53;2.75;;;22.80;80.40;;;;;;5012460;28;20087;-88
2021/08/10 12:50:02;;;;;;;5.38;2.88;;;22.90;81.50;;;;;;5016913;28;20037;-89
2021/08/10 12:52:43;;;;;;;8.13;3.45;;;23.00;81.10;;;;;;5010947;28;20021;-88
2021/08/10 12:55:09;;;;;;;;;;;23.00;79.40;;;;;;5027571;28;20022;-88
2021/08/10 12:57:36;;;;;;;5.10;3.08;;;23.10;78.50;;;;;;5015745;28;19912;-87
2021/08/10 13:00:12;;;;;;;6.32;3.22;;;23.10;79.50;;;;;;5014651;28;20034;-89